Time,TemperatureF,DewpointF,PressureIn,WindDirection,WindDirectionDegrees,WindSpeedMPH,WindSpeedGustMPH,Humidity,HourlyPrecipIn,Conditions,Clouds,dailyrainin,SoftwareType,DateUTC
2018-02-22 00:04:00,23.1,13.5,30.45,West,267,0.0,0.0,66,0.00,,,0.00,WeatherCatV1.24B11,2018-02-22 07:04:00,
2018-02-22 00:09:00,23.1,13.8,30.45,West,267,0.0,0.0,67,0.00,,,0.00,WeatherCatV1.24B11,2018-02-22 07:09:00,
2018-02-22 00:14:00,23.2,13.6,30.45,West,267,0.0,0.0,66,0.00,,,0.00,WeatherCatV1.24B11,2018-02-22 07:14:00,
2018-02-22 00:19:00,23.3,14.7,30.45,West,267,0.0,0.0,69,0.00,,,0.00,WeatherCatV1.24B11,2018-02-22 07:19:00,
2018-02-22 00:24:00,23.3,14.0,30.45,West,267,0.0,0.0,67,0.00,,,0.00,WeatherCatV1.24B11,2018-02-22 07:24:00,
2018-02-22 00:29:00,23.4,14.4,30.45,West,267,0.0,0.0,68,0.00,,,0.00,WeatherCatV1.24B11,2018-02-22 07:29:00,
2018-02-22 00:34:00,23.3,14.3,30.44,West,267,0.0,0.0,68,0.00,,,0.00,WeatherCatV1.24B11,2018-02-22 07:34:00,
2018-02-22 00:39:00,23.3,14.0,30.44,West,267,0.0,1.0,67,0.00,,,0.00,WeatherCatV1.24B11,2018-02-22 07:39:00,
2018-02-22 00:44:00,23.2,14.2,30.44,West,267,0.0,0.0,68,0.00,,,0.00,WeatherCatV1.24B11,2018-02-22 07:44:00,
2018-02-22 00:49:00,23.0,15.0,30.44,West,267,0.0,0.0,71,0.00,,,0.00,WeatherCatV1.24B11,2018-02-22 07:49:00,
2018-02-22 00:54:00,22.7,14.4,30.44,West,267,0.0,0.0,70,0.00,,,0.00,WeatherCatV1.24B11,2018-02-22 07:54:00,
2018-02-22 00:59:00,22.5,14.5,30.44,West,267,1.0,1.0,71,0.00,,,0.00,WeatherCatV1.24B11,2018-02-22 07:59:00,
2018-02-22 01:04:00,22.3,13.4,30.44,West,267,3.0,4.0,68,0.00,,,0.00,WeatherCatV1.24B11,2018-02-22 08:04:00,
2018-02-22 01:09:00,22.1,13.5,30.43,West,267,0.0,3.0,69,0.00,,,0.00,WeatherCatV1.24B11,2018-02-22 08:09:00,
2018-02-22 01:14:00,21.9,13.3,30.43,West,267,2.0,3.0,69,0.00,,,0.00,WeatherCatV1.24B11,2018-02-22 08:14:00,
2018-02-22 01:19:00,21.7,12.8,30.43,West,267,2.0,3.0,68,0.00,,,0.00,WeatherCatV1.24B11,2018-02-22 08:19:00,
2018-02-22 01:24:00,21.6,13.0,30.43,West,267,3.0,3.0,69,0.00,,,0.00,WeatherCatV1.24B11,2018-02-22 08:24:00,
2018-02-22 01:29:00,21.4,12.5,30.43,West,267,2.0,3.0,68,0.00,,,0.00,WeatherCatV1.24B11,2018-02-22 08:29:00,
2018-02-22 01:34:00,21.3,12.7,30.43,West,267,3.0,4.0,69,0.00,,,0.00,WeatherCatV1.24B11,2018-02-22 08:34:00,
2018-02-22 01:39:00,21.1,12.6,30.43,West,267,2.0,3.0,69,0.00,,,0.00,WeatherCatV1.24B11,2018-02-22 08:39:00,
2018-02-22 01:44:00,21.1,12.6,30.43,West,267,2.0,3.0,69,0.00,,,0.00,WeatherCatV1.24B11,2018-02-22 08:44:00,
2018-02-22 01:50:00,21.2,12.6,30.43,West,267,4.0,4.0,69,0.00,,,0.00,WeatherCatV1.24B11,2018-02-22 08:50:00,
2018-02-22 01:55:00,21.2,12.3,30.43,West,267,2.0,4.0,68,0.00,,,0.00,WeatherCatV1.24B11,2018-02-22 08:55:00,
2018-02-22 02:00:00,21.2,12.3,30.43,West,267,0.0,0.0,68,0.00,,,0.00,WeatherCatV1.24B11,2018-02-22 09:00:00,
2018-02-22 02:05:00,21.3,12.4,30.43,West,267,0.0,0.0,68,0.00,,,0.00,WeatherCatV1.24B11,2018-02-22 09:05:00,
2018-02-22 02:10:00,21.3,12.1,30.43,West,267,0.0,0.0,67,0.00,,,0.00,WeatherCatV1.24B11,2018-02-22 09:10:00,
2018-02-22 02:15:00,21.3,12.4,30.43,West,267,0.0,0.0,68,0.00,,,0.00,WeatherCatV1.24B11,2018-02-22 09:15:00,
2018-02-22 02:20:00,21.4,12.8,30.42,West,267,1.0,2.0,69,0.00,,,0.00,WeatherCatV1.24B11,2018-02-22 09:20:00,
2018-02-22 02:25:00,21.4,12.8,30.42,West,267,0.0,0.0,69,0.00,,,0.00,WeatherCatV1.24B11,2018-02-22 09:25:00,
2018-02-22 02:30:00,21.4,13.2,30.43,West,267,0.0,0.0,70,0.00,,,0.00,WeatherCatV1.24B11,2018-02-22 09:30:00,
2018-02-22 02:35:00,21.4,13.2,30.42,West,267,0.0,2.0,70,0.00,,,0.00,WeatherCatV1.24B11,2018-02-22 09:35:00,
2018-02-22 02:40:00,21.5,13.6,30.43,West,267,0.0,0.0,71,0.00,,,0.00,WeatherCatV1.24B11,2018-02-22 09:40:00,
2018-02-22 02:45:00,21.5,13.6,30.42,West,267,0.0,2.0,71,0.00,,,0.00,WeatherCatV1.24B11,2018-02-22 09:45:00,
2018-02-22 02:50:00,21.5,13.6,30.42,West,267,0.0,0.0,71,0.00,,,0.00,WeatherCatV1.24B11,2018-02-22 09:50:00,